createdAt,value
2022-09-26T00:02:04.039Z,99437.76
2022-09-26T00:07:06.923Z,99430.23
2022-09-26T00:12:09.669Z,99426.18
2022-09-26T00:17:12.548Z,99423.23
2022-09-26T00:22:15.486Z,99417.55
2022-09-26T00:27:19.679Z,99419.11
2022-09-26T00:32:22.473Z,99417.15
2022-09-26T00:37:25.362Z,99412.48
2022-09-26T00:42:28.097Z,99412.44
2022-09-26T00:47:39.789Z,99412.48
2022-09-26T00:52:56.648Z,99414.41
2022-09-26T00:58:25.446Z,99409.28
2022-09-26T01:03:31.193Z,99413.73
2022-09-26T01:08:44.451Z,99409.84
2022-09-26T01:13:48.877Z,99407.74
2022-09-26T01:18:51.701Z,99405.19
2022-09-26T01:23:55.549Z,99399.83
2022-09-26T01:29:26.464Z,99396.55
2022-09-26T01:34:42.805Z,99390.31
2022-09-26T01:40:14.817Z,99382.37
2022-09-26T01:45:21.901Z,99377.74
2022-09-26T01:50:28.628Z,99376.45
2022-09-26T01:55:36.399Z,99367.79
2022-09-26T02:00:42.603Z,99360.80
2022-09-26T02:05:58.320Z,99355.13
2022-09-26T02:11:07.007Z,99349.31
2022-09-26T02:16:15.230Z,99347.58
2022-09-26T02:21:24.057Z,99349.77
2022-09-26T02:26:26.875Z,99350.93
2022-09-26T02:31:35.590Z,99349.43
2022-09-26T02:36:38.511Z,99348.33
2022-09-26T02:41:50.709Z,99349.68
2022-09-26T02:47:24.629Z,99346.02
2022-09-26T02:52:36.328Z,99342.91
2022-09-26T02:58:05.656Z,99337.56
2022-09-26T03:03:23.199Z,99331.13
2022-09-26T03:08:29.283Z,99328.63
2022-09-26T03:13:38.593Z,99329.29
2022-09-26T03:18:50.741Z,99322.30
2022-09-26T03:23:54.492Z,99315.66
2022-09-26T03:28:57.276Z,99309.79
2022-09-26T03:34:00.138Z,99310.59
2022-09-26T03:39:03.810Z,99313.35
2022-09-26T03:44:07.441Z,99313.19
2022-09-26T03:49:13.500Z,99304.62
2022-09-26T03:54:16.710Z,99303.66
2022-09-26T03:59:19.630Z,99305.84
2022-09-26T04:04:22.385Z,99304.88
2022-09-26T04:09:25.565Z,99302.91
2022-09-26T04:14:28.298Z,99290.21
2022-09-26T04:19:31.885Z,99287.63
2022-09-26T04:24:34.743Z,99281.51
2022-09-26T04:29:37.534Z,99277.45
2022-09-26T04:34:40.319Z,99272.19
2022-09-26T04:39:43.907Z,99272.89
2022-09-26T04:44:46.834Z,99277.70
2022-09-26T04:49:49.548Z,99280.18
2022-09-26T04:54:52.634Z,99278.52
2022-09-26T04:59:55.521Z,99280.39
2022-09-26T05:05:00.072Z,99279.40
2022-09-26T05:10:03.030Z,99271.65
2022-09-26T05:15:10.514Z,99265.34
2022-09-26T05:20:14.650Z,99261.52
2022-09-26T05:25:36.362Z,99261.72
2022-09-26T05:30:43.305Z,99255.46
2022-09-26T05:35:53.663Z,99260.39
2022-09-26T05:40:56.656Z,99262.27
2022-09-26T05:46:04.163Z,99249.29
2022-09-26T05:51:09.971Z,99248.30
2022-09-26T05:56:18.485Z,99251.85
2022-09-26T06:01:23.189Z,99250.83
2022-09-26T06:06:26.305Z,99247.65
2022-09-26T06:11:31.252Z,99249.27
2022-09-26T06:16:34.321Z,99248.39
2022-09-26T06:21:40.808Z,99241.23
2022-09-26T06:26:43.573Z,99235.48
2022-09-26T06:31:47.544Z,99235.44
2022-09-26T06:36:51.315Z,99227.76
2022-09-26T06:41:54.192Z,99226.27
2022-09-26T06:47:05.874Z,99219.58
2022-09-26T06:52:09.411Z,99221.35
2022-09-26T06:57:15.235Z,99222.96
2022-09-26T07:02:33.898Z,99219.31
2022-09-26T07:07:49.165Z,99213.36
2022-09-26T07:12:53.404Z,99207.07
2022-09-26T07:18:02.509Z,99204.86
2022-09-26T07:23:09.918Z,99193.48
2022-09-26T07:28:13.803Z,99193.81
2022-09-26T07:33:16.682Z,99193.97
2022-09-26T07:38:19.655Z,99191.61
2022-09-26T07:43:37.767Z,99189.86
2022-09-26T07:49:04.204Z,99189.98
2022-09-26T07:54:07.158Z,99192.79
2022-09-26T07:59:10.256Z,99200.67
2022-09-26T08:04:16.917Z,99205.55
2022-09-26T08:09:19.883Z,99201.73
2022-09-26T08:14:22.792Z,99206.45
2022-09-26T08:19:25.849Z,99202.95
2022-09-26T08:24:28.752Z,99193.27
2022-09-26T08:29:32.816Z,99193.03
2022-09-26T08:34:36.617Z,99198.25
2022-09-26T08:39:39.628Z,99197.46
2022-09-26T08:45:27.189Z,99197.94
2022-09-26T08:50:49.626Z,99191.03
2022-09-26T08:56:01.365Z,99193.30
2022-09-26T09:01:13.252Z,99194.59
2022-09-26T09:06:18.521Z,99192.48
2022-09-26T09:11:55.499Z,99190.89
2022-09-26T09:17:42.024Z,99184.16
2022-09-26T09:23:07.476Z,99187.48
2022-09-26T09:28:36.827Z,99173.64
2022-09-26T09:33:48.042Z,99168.70
2022-09-26T09:38:56.683Z,99160.62
2022-09-26T09:44:10.565Z,99151.23
2022-09-26T09:55:12.234Z,99148.22
2022-09-26T10:00:27.161Z,99151.89
2022-09-26T10:05:48.945Z,99152.73
2022-09-26T10:11:27.463Z,99155.60
2022-09-26T10:16:38.493Z,99158.52
2022-09-26T10:21:48.790Z,99153.96
2022-09-26T10:27:05.056Z,99149.82
2022-09-26T10:32:18.313Z,99150.48
2022-09-26T10:37:29.871Z,99155.61
2022-09-26T10:42:32.702Z,99147.30
2022-09-26T10:47:35.548Z,99139.30
2022-09-26T10:53:17.518Z,99134.85
2022-09-26T10:58:24.664Z,99133.36
2022-09-26T11:03:51.001Z,99132.27
2022-09-26T11:09:03.628Z,99132.96
2022-09-26T11:14:10.159Z,99131.23
2022-09-26T11:19:31.292Z,99131.19
2022-09-26T11:24:46.128Z,99134.77
2022-09-26T11:30:13.495Z,99128.52
2022-09-26T11:35:26.287Z,99122.62
2022-09-26T11:40:41.375Z,99120.77
2022-09-26T11:45:59.630Z,99121.70
2022-09-26T11:51:20.340Z,99120.42
2022-09-26T11:56:27.186Z,99119.95
2022-09-26T12:02:15.834Z,99113.88
2022-09-26T12:07:25.599Z,99110.13
2022-09-26T12:12:42.566Z,99108.85
2022-09-26T12:18:13.795Z,99104.04
2022-09-26T12:23:30.398Z,99099.36
2022-09-26T12:28:55.031Z,99099.95
2022-09-26T12:34:21.726Z,99098.31
2022-09-26T12:39:43.743Z,99090.48
2022-09-26T12:44:49.371Z,99091.86
2022-09-26T12:49:52.580Z,99089.65
2022-09-26T12:55:17.182Z,99084.61
2022-09-26T13:00:23.282Z,99083.80
2022-09-26T13:05:57.017Z,99085.27
2022-09-26T13:11:33.019Z,99079.34
2022-09-26T13:16:44.467Z,99077.48
2022-09-26T13:22:02.744Z,99072.50
2022-09-26T13:27:36.307Z,99068.58
2022-09-26T13:33:14.931Z,99064.73
2022-09-26T13:38:45.246Z,99063.13
2022-09-26T13:43:48.052Z,99057.45
2022-09-26T13:49:28.897Z,99049.36
2022-09-26T13:55:10.860Z,99052.80
2022-09-26T14:00:31.692Z,99052.48
2022-09-26T14:05:47.075Z,99051.16
2022-09-26T14:10:53.777Z,99047.23
2022-09-26T14:16:01.770Z,99046.52
2022-09-26T14:21:12.783Z,99038.48
2022-09-26T14:26:42.213Z,99037.33
2022-09-26T14:32:04.433Z,99034.95
2022-09-26T14:37:25.263Z,99032.51
2022-09-26T14:42:46.692Z,99025.89
2022-09-26T14:48:09.328Z,99024.92
2022-09-26T14:53:40.748Z,99024.94
2022-09-26T14:58:44.057Z,99026.96
2022-09-26T15:03:59.473Z,99019.05
2022-09-26T15:09:11.810Z,99022.17
2022-09-26T15:14:48.977Z,99013.02
2022-09-26T15:19:55.846Z,99009.33
2022-09-26T15:25:15.978Z,99012.23
2022-09-26T15:30:24.416Z,99013.21
2022-09-26T15:35:27.435Z,99011.88
2022-09-26T15:40:34.957Z,99014.33
2022-09-26T15:45:47.265Z,99015.93
2022-09-26T15:51:41.930Z,99011.10
2022-09-26T15:56:49.404Z,99015.19
2022-09-26T16:01:53.316Z,99018.25
2022-09-26T16:06:59.073Z,99019.71
2022-09-26T16:12:03.647Z,99021.78
2022-09-26T16:17:35.204Z,99021.23
2022-09-26T16:23:27.785Z,99015.23
2022-09-26T16:28:50.410Z,99013.95
2022-09-26T16:33:54.891Z,99012.46
2022-09-26T16:39:09.163Z,99010.33
2022-09-26T16:44:35.778Z,99011.40
2022-09-26T16:49:42.492Z,99011.22
2022-09-26T16:54:47.534Z,99012.44
2022-09-26T16:59:50.884Z,99017.27
2022-09-26T17:04:54.519Z,99014.77
2022-09-26T17:09:59.682Z,99014.70
2022-09-26T17:15:09.740Z,99014.63
2022-09-26T17:20:15.927Z,99011.66
2022-09-26T17:25:25.842Z,99010.66
2022-09-26T17:30:29.305Z,99010.33
2022-09-26T17:35:36.052Z,99009.85
2022-09-26T17:40:43.952Z,99006.45
2022-09-26T17:45:52.569Z,99004.63
2022-09-26T17:50:56.607Z,99004.17
2022-09-26T17:55:59.541Z,99004.87
2022-09-26T18:01:03.862Z,99006.70
2022-09-26T18:30:28.293Z,98993.45
2022-09-26T18:35:31.522Z,98989.79
2022-09-26T18:40:40.121Z,98990.74
2022-09-26T18:45:43.035Z,98988.34
2022-09-26T18:50:46.052Z,98986.55
2022-09-26T18:56:07.922Z,98995.41
2022-09-26T19:01:28.277Z,98994.89
2022-09-26T19:06:43.755Z,98994.14
2022-09-26T19:11:47.166Z,98993.19
2022-09-26T19:16:50.990Z,98994.33
2022-09-26T19:22:10.347Z,98991.74
2022-09-26T19:27:15.446Z,98992.62
2022-09-26T19:32:21.879Z,98984.05
2022-09-26T19:37:24.809Z,98982.38
2022-09-26T19:42:28.215Z,98980.63
2022-09-26T19:47:33.641Z,98982.64
2022-09-26T19:52:36.453Z,98982.48
2022-09-26T19:57:39.402Z,98986.01
2022-09-26T20:02:43.078Z,98988.75
2022-09-26T20:07:46.724Z,98989.37
2022-09-26T20:12:49.624Z,98988.29
2022-09-26T20:17:55.269Z,98982.75
2022-09-26T20:22:59.067Z,98977.83
2022-09-26T20:28:02.112Z,98975.30
2022-09-26T20:33:06.296Z,98971.88
2022-09-26T20:38:26.079Z,98973.08
2022-09-26T20:43:34.719Z,98978.00
2022-09-26T20:48:40.650Z,98983.59
2022-09-26T20:53:43.440Z,98987.52
2022-09-26T20:58:46.298Z,98988.01
2022-09-26T21:03:50.654Z,98985.17
2022-09-26T21:08:53.636Z,98979.58
2022-09-26T21:13:56.517Z,98979.02
2022-09-26T21:18:59.412Z,98978.34
2022-09-26T21:24:02.325Z,98981.30
2022-09-26T21:29:06.592Z,98975.61
2022-09-26T21:34:17.051Z,98970.94
2022-09-26T21:39:20.533Z,98961.92
2022-09-26T21:44:39.034Z,98955.67
2022-09-26T21:49:41.900Z,98952.08
2022-09-26T21:54:45.368Z,98951.10
2022-09-26T21:59:50.158Z,98945.77
2022-09-26T22:04:53.055Z,98949.27
2022-09-26T22:09:55.914Z,98947.43
2022-09-26T22:14:59.465Z,98942.52
2022-09-26T22:20:02.505Z,98940.30
2022-09-26T22:25:07.264Z,98931.11
2022-09-26T22:30:11.069Z,98925.83
2022-09-26T22:35:14.426Z,98918.95
2022-09-26T22:40:17.221Z,98915.20
2022-09-26T22:45:20.732Z,98907.36
2022-09-26T22:50:23.580Z,98902.93
2022-09-26T22:55:26.379Z,98901.77
2022-09-26T23:00:29.418Z,98895.39
2022-09-26T23:05:32.145Z,98894.52
2022-09-26T23:10:35.320Z,98889.85
2022-09-26T23:15:38.093Z,98885.59
2022-09-26T23:20:42.517Z,98879.02
2022-09-26T23:25:50.376Z,98874.20
2022-09-26T23:30:53.223Z,98875.52
2022-09-26T23:36:00.652Z,98866.17
2022-09-26T23:41:04.744Z,98863.80
2022-09-26T23:46:08.709Z,98864.11
2022-09-26T23:51:11.609Z,98865.94
2022-09-26T23:56:15.118Z,98875.20
